Uluwatu — FGD4428 — position and weather

sailwx.info

Track history (hours):
 
Tides and Currents Weather Stations Pressure Air Temp Water Temp Dewpoint Dewpoint Depression Visibility Wind Speed Wind Dir Waves Ship Positions

Uluwatu

Last reported at 2017-Sep-03 05:33 UTC. Time now 2017-Nov-21 04:51 UTC.
Position N 47°44' W 003°22'.
Warning: this ship's position is months out of date.

Length 10 m.

Type: Sailing vessel. MMSI: 227561550.

Date/timePositionNaut miles runAvg speedWind from/ knotsBaromVisibWave heightAir tempDewpointWater temp
2017-Sep-03 05:33N 47°44' W 003°22'0 0.0
2017-Sep-03 05:30N 47°44' W 003°22'10 5.3
2017-Sep-03 03:35N 47°35' W 003°16'1 8.1
2017-Sep-03 03:30N 47°34' W 003°15'4 7.6
2017-Sep-03 03:00N 47°31' W 003°12'6 7.0
2017-Sep-03 02:05N 47°27' W 003°05'1 7.3
2017-Sep-03 02:00N 47°27' W 003°04'5 7.3
2017-Sep-03 01:20N 47°26' W 002°57'2 7.5
2017-Sep-03 01:00N 47°26' W 002°53'4 7.5
2017-Sep-03 00:30N 47°25' W 002°48'4 7.3
2017-Sep-03 00:00N 47°25' W 002°42'3 7.0
2017-Sep-02 23:30N 47°24' W 002°37'3 6.0
2017-Sep-02 23:00N 47°24' W 002°33'1 0.2
2017-Sep-02 20:25N 47°23' W 002°33'0 0.0
2017-Sep-02 19:57N 47°23' W 002°33'0 0.0
2017-Sep-02 19:29N 47°23' W 002°33'0 0.0
2017-Sep-02 18:56N 47°23' W 002°33'0 0.0
2017-Sep-02 18:29N 47°23' W 002°33'0 0.0
2017-Sep-02 17:59N 47°23' W 002°33'0 0.0
2017-Sep-02 17:29N 47°23' W 002°33'0 0.0
2017-Sep-02 16:59N 47°23' W 002°33'0 0.0
2017-Sep-02 16:29N 47°23' W 002°33'0 0.0
2017-Sep-02 15:59N 47°23' W 002°33'0 0.0
2017-Sep-02 15:26N 47°23' W 002°33'15 2.7
2017-Sep-02 09:51N 47°29' W 002°53'2 5.2
2017-Sep-02 09:30N 47°29' W 002°56'3 5.2
2017-Sep-02 09:00N 47°29' W 002°59'3 5.2
2017-Sep-02 08:30N 47°29' W 003°03'1 1.7
2017-Sep-02 08:00N 47°29' W 003°05'0 0.3
2017-Sep-02 07:30N 47°30' W 003°04'1 1.0
2017-Sep-02 06:27N 47°29' W 003°06'0 0.0
2017-Sep-01 13:49N 47°29' W 003°06'18 2.6
2017-Sep-01 07:05N 47°43' W 003°22'0 1.4
2017-Sep-01 07:00N 47°43' W 003°22'0 0.0
2017-Aug-31 14:28N 47°43' W 003°22'0 0.0
2017-Aug-31 14:00N 47°43' W 003°22'0 0.4
2017-Aug-31 13:30N 47°43' W 003°22'3 6.5
2017-Aug-31 13:00N 47°40' W 003°25'4 8.0
2017-Aug-31 12:30N 47°36' W 003°24'3 6.2
2017-Aug-31 12:00N 47°37' W 003°28'3 5.4
2017-Aug-31 11:30N 47°39' W 003°30'2 4.4
2017-Aug-31 11:00N 47°39' W 003°27'2 4.6
2017-Aug-31 10:30N 47°39' W 003°23'2 3.4
2017-Aug-31 10:00N 47°41' W 003°22'0 0.7
2017-Aug-31 09:30N 47°40' W 003°21'1 2.3
2017-Aug-31 09:00N 47°41' W 003°22'2 2.5
2017-Aug-31 08:17N 47°43' W 003°22'0 0.0
2017-Aug-30 18:03N 47°43' W 003°22'0 0.0
2017-Aug-30 18:00N 47°43' W 003°22'0 0.0
2017-Aug-30 17:29N 47°43' W 003°22'2 4.5
2017-Aug-30 17:00N 47°41' W 003°24'4 7.8
2017-Aug-30 16:30N 47°41' W 003°30'4 8.5
2017-Aug-30 16:00N 47°42' W 003°36'54 6.6
2017-Aug-30 07:50N 48°18' W 004°36'1 3.3
2017-Aug-30 07:30N 48°17' W 004°35'0 0.6
2017-Aug-30 07:00N 48°17' W 004°35'0 0.3
2017-Aug-30 06:30N 48°17' W 004°36'0 0.8
2017-Aug-30 05:59N 48°17' W 004°36'0 0.0
2017-Aug-29 13:11N 48°17' W 004°36'0 0.0
2017-Aug-29 12:59N 48°17' W 004°36'0 0.0
2017-Aug-29 12:29N 48°17' W 004°36'0 0.0
2017-Aug-29 11:59N 48°17' W 004°36'0 0.0
2017-Aug-29 11:29N 48°17' W 004°36'0 0.0
2017-Aug-29 10:59N 48°17' W 004°36'0 0.0
2017-Aug-29 10:29N 48°17' W 004°36'0 0.0
2017-Aug-29 04:18N 48°17' W 004°36'1 1.6
2017-Aug-29 03:50N 48°17' W 004°35'0 1.4
2017-Aug-29 03:30N 48°17' W 004°36'2 4.8
2017-Aug-29 03:00N 48°16' W 004°39'3 5.2
2017-Aug-29 02:30N 48°13' W 004°39'3 6.2
2017-Aug-29 02:00N 48°10' W 004°38'2 4.0
2017-Aug-29 01:30N 48°09' W 004°36'4 8.2
2017-Aug-29 01:00N 48°12' W 004°40'4 8.7
2017-Aug-29 00:30N 48°15' W 004°44'7 7.6
2017-Aug-28 23:35N 48°22' W 004°48'1 8.8
2017-Aug-28 23:30N 48°22' W 004°49'4 9.1
2017-Aug-28 23:01N 48°27' W 004°51'4 7.5
2017-Aug-28 22:30N 48°30' W 004°50'4 7.5
2017-Aug-28 22:00N 48°34' W 004°47'4 8.1
2017-Aug-28 21:31N 48°37' W 004°45'4 7.1
2017-Aug-28 21:01N 48°40' W 004°42'3 5.6
2017-Aug-28 20:29N 48°43' W 004°39'2 4.0
2017-Aug-28 19:58N 48°44' W 004°37'1 2.5
2017-Aug-28 19:28N 48°44' W 004°35'2 3.5
2017-Aug-28 18:59N 48°45' W 004°32'66 2.2
2017-Aug-27 12:14N 48°53' W 002°53'2 6.2
2017-Aug-27 11:58N 48°52' W 002°54'3 6.0
2017-Aug-27 11:29N 48°49' W 002°55'2 3.6
2017-Aug-27 10:51N 48°47' W 002°54'2 4.5
2017-Aug-27 10:26N 48°48' W 002°55'2 5.2
2017-Aug-27 10:00N 48°50' W 002°57'1 1.6
2017-Aug-27 09:24N 48°50' W 002°58'1 1.3
2017-Aug-27 09:00N 48°50' W 002°59'3 0.2
2017-Aug-26 15:07N 48°50' W 003°04'1 6.4
2017-Aug-26 14:57N 48°50' W 003°03'7 7.0
2017-Aug-26 14:00N 48°50' W 002°52'5 8.8
2017-Aug-26 13:29N 48°49' W 002°46'4 9.1
2017-Aug-26 13:00N 48°47' W 002°39'6 8.9
2017-Aug-26 12:21N 48°46' W 002°31'3 7.9
2017-Aug-26 12:00N 48°45' W 002°27'4 7.1
2017-Aug-26 11:30N 48°45' W 002°22'3 6.6
2017-Aug-26 11:00N 48°44' W 002°17'5 5.7
2017-Aug-26 10:04N 48°43' W 002°09'0 5.1
2017-Aug-26 10:00N 48°42' W 002°08'2 3.7
2017-Aug-26 09:30N 48°41' W 002°07'0 0.5
2017-Aug-26 09:00N 48°41' W 002°07'1 1.8
2017-Aug-26 08:28N 48°42' W 002°06'2 4.4
2017-Aug-26 08:00N 48°40' W 002°05'2 4.6
2017-Aug-26 07:30N 48°38' W 002°02'1 0.0
2017-Aug-25 10:45N 48°39' W 002°01'0 0.2
2017-Aug-25 10:21N 48°39' W 002°01'0 0.3
2017-Aug-25 09:53N 48°39' W 002°01'0 0.8
2017-Aug-25 09:30N 48°38' W 002°02'0 0.7
2017-Aug-25 08:58N 48°38' W 002°02'3 6.5
2017-Aug-25 08:30N 48°41' W 002°05'3 3.6
2017-Aug-25 07:48N 48°39' W 002°02'1 3.8
2017-Aug-25 07:30N 48°38' W 002°02'1 0.7
2017-Aug-25 06:30N 48°39' W 002°01'  
Track history (hours):
 
Tides and Currents Weather Stations Pressure Air Temp Water Temp Dewpoint Dewpoint Depression Visibility Wind Speed Wind Dir Waves Ship Positions

Uluwatu

Last reported at 2017-Sep-03 05:33 UTC. Time now 2017-Nov-21 04:51 UTC.
Position N 47°44' W 003°22'.
Warning: this ship's position is months out of date.

Length 10 m.

Type: Sailing vessel. MMSI: 227561550.

Date/timePositionNaut miles runAvg speedWind from/ knotsBaromVisibWave heightAir tempDewpointWater temp
2017-Sep-03 05:33N 47°44' W 003°22'0 0.0
2017-Sep-03 05:30N 47°44' W 003°22'10 5.3
2017-Sep-03 03:35N 47°35' W 003°16'1 8.1
2017-Sep-03 03:30N 47°34' W 003°15'4 7.6
2017-Sep-03 03:00N 47°31' W 003°12'6 7.0
2017-Sep-03 02:05N 47°27' W 003°05'1 7.3
2017-Sep-03 02:00N 47°27' W 003°04'5 7.3
2017-Sep-03 01:20N 47°26' W 002°57'2 7.5
2017-Sep-03 01:00N 47°26' W 002°53'4 7.5
2017-Sep-03 00:30N 47°25' W 002°48'4 7.3
2017-Sep-03 00:00N 47°25' W 002°42'3 7.0
2017-Sep-02 23:30N 47°24' W 002°37'3 6.0
2017-Sep-02 23:00N 47°24' W 002°33'1 0.2
2017-Sep-02 20:25N 47°23' W 002°33'0 0.0
2017-Sep-02 19:57N 47°23' W 002°33'0 0.0
2017-Sep-02 19:29N 47°23' W 002°33'0 0.0
2017-Sep-02 18:56N 47°23' W 002°33'0 0.0
2017-Sep-02 18:29N 47°23' W 002°33'0 0.0
2017-Sep-02 17:59N 47°23' W 002°33'0 0.0
2017-Sep-02 17:29N 47°23' W 002°33'0 0.0
2017-Sep-02 16:59N 47°23' W 002°33'0 0.0
2017-Sep-02 16:29N 47°23' W 002°33'0 0.0
2017-Sep-02 15:59N 47°23' W 002°33'0 0.0
2017-Sep-02 15:26N 47°23' W 002°33'15 2.7
2017-Sep-02 09:51N 47°29' W 002°53'2 5.2
2017-Sep-02 09:30N 47°29' W 002°56'3 5.2
2017-Sep-02 09:00N 47°29' W 002°59'3 5.2
2017-Sep-02 08:30N 47°29' W 003°03'1 1.7
2017-Sep-02 08:00N 47°29' W 003°05'0 0.3
2017-Sep-02 07:30N 47°30' W 003°04'1 1.0
2017-Sep-02 06:27N 47°29' W 003°06'0 0.0
2017-Sep-01 13:49N 47°29' W 003°06'18 2.6
2017-Sep-01 07:05N 47°43' W 003°22'0 1.4
2017-Sep-01 07:00N 47°43' W 003°22'0 0.0
2017-Aug-31 14:28N 47°43' W 003°22'0 0.0
2017-Aug-31 14:00N 47°43' W 003°22'0 0.4
2017-Aug-31 13:30N 47°43' W 003°22'3 6.5
2017-Aug-31 13:00N 47°40' W 003°25'4 8.0
2017-Aug-31 12:30N 47°36' W 003°24'3 6.2
2017-Aug-31 12:00N 47°37' W 003°28'3 5.4
2017-Aug-31 11:30N 47°39' W 003°30'2 4.4
2017-Aug-31 11:00N 47°39' W 003°27'2 4.6
2017-Aug-31 10:30N 47°39' W 003°23'2 3.4
2017-Aug-31 10:00N 47°41' W 003°22'0 0.7
2017-Aug-31 09:30N 47°40' W 003°21'1 2.3
2017-Aug-31 09:00N 47°41' W 003°22'2 2.5
2017-Aug-31 08:17N 47°43' W 003°22'0 0.0
2017-Aug-30 18:03N 47°43' W 003°22'0 0.0
2017-Aug-30 18:00N 47°43' W 003°22'0 0.0
2017-Aug-30 17:29N 47°43' W 003°22'2 4.5
2017-Aug-30 17:00N 47°41' W 003°24'4 7.8
2017-Aug-30 16:30N 47°41' W 003°30'4 8.5
2017-Aug-30 16:00N 47°42' W 003°36'54 6.6
2017-Aug-30 07:50N 48°18' W 004°36'1 3.3
2017-Aug-30 07:30N 48°17' W 004°35'0 0.6
2017-Aug-30 07:00N 48°17' W 004°35'0 0.3
2017-Aug-30 06:30N 48°17' W 004°36'0 0.8
2017-Aug-30 05:59N 48°17' W 004°36'0 0.0
2017-Aug-29 13:11N 48°17' W 004°36'0 0.0
2017-Aug-29 12:59N 48°17' W 004°36'0 0.0
2017-Aug-29 12:29N 48°17' W 004°36'0 0.0
2017-Aug-29 11:59N 48°17' W 004°36'0 0.0
2017-Aug-29 11:29N 48°17' W 004°36'0 0.0
2017-Aug-29 10:59N 48°17' W 004°36'0 0.0
2017-Aug-29 10:29N 48°17' W 004°36'0 0.0
2017-Aug-29 04:18N 48°17' W 004°36'1 1.6
2017-Aug-29 03:50N 48°17' W 004°35'0 1.4
2017-Aug-29 03:30N 48°17' W 004°36'2 4.8
2017-Aug-29 03:00N 48°16' W 004°39'3 5.2
2017-Aug-29 02:30N 48°13' W 004°39'3 6.2
2017-Aug-29 02:00N 48°10' W 004°38'2 4.0
2017-Aug-29 01:30N 48°09' W 004°36'4 8.2
2017-Aug-29 01:00N 48°12' W 004°40'4 8.7
2017-Aug-29 00:30N 48°15' W 004°44'7 7.6
2017-Aug-28 23:35N 48°22' W 004°48'1 8.8
2017-Aug-28 23:30N 48°22' W 004°49'4 9.1
2017-Aug-28 23:01N 48°27' W 004°51'4 7.5
2017-Aug-28 22:30N 48°30' W 004°50'4 7.5
2017-Aug-28 22:00N 48°34' W 004°47'4 8.1
2017-Aug-28 21:31N 48°37' W 004°45'4 7.1
2017-Aug-28 21:01N 48°40' W 004°42'3 5.6
2017-Aug-28 20:29N 48°43' W 004°39'2 4.0
2017-Aug-28 19:58N 48°44' W 004°37'1 2.5
2017-Aug-28 19:28N 48°44' W 004°35'2 3.5
2017-Aug-28 18:59N 48°45' W 004°32'66 2.2
2017-Aug-27 12:14N 48°53' W 002°53'2 6.2
2017-Aug-27 11:58N 48°52' W 002°54'3 6.0
2017-Aug-27 11:29N 48°49' W 002°55'2 3.6
2017-Aug-27 10:51N 48°47' W 002°54'2 4.5
2017-Aug-27 10:26N 48°48' W 002°55'2 5.2
2017-Aug-27 10:00N 48°50' W 002°57'1 1.6
2017-Aug-27 09:24N 48°50' W 002°58'1 1.3
2017-Aug-27 09:00N 48°50' W 002°59'3 0.2
2017-Aug-26 15:07N 48°50' W 003°04'1 6.4
2017-Aug-26 14:57N 48°50' W 003°03'7 7.0
2017-Aug-26 14:00N 48°50' W 002°52'5 8.8
2017-Aug-26 13:29N 48°49' W 002°46'4 9.1
2017-Aug-26 13:00N 48°47' W 002°39'6 8.9
2017-Aug-26 12:21N 48°46' W 002°31'3 7.9
2017-Aug-26 12:00N 48°45' W 002°27'4 7.1
2017-Aug-26 11:30N 48°45' W 002°22'3 6.6
2017-Aug-26 11:00N 48°44' W 002°17'5 5.7
2017-Aug-26 10:04N 48°43' W 002°09'0 5.1
2017-Aug-26 10:00N 48°42' W 002°08'2 3.7
2017-Aug-26 09:30N 48°41' W 002°07'0 0.5
2017-Aug-26 09:00N 48°41' W 002°07'1 1.8
2017-Aug-26 08:28N 48°42' W 002°06'2 4.4
2017-Aug-26 08:00N 48°40' W 002°05'2 4.6
2017-Aug-26 07:30N 48°38' W 002°02'1 0.0
2017-Aug-25 10:45N 48°39' W 002°01'0 0.2
2017-Aug-25 10:21N 48°39' W 002°01'0 0.3
2017-Aug-25 09:53N 48°39' W 002°01'0 0.8
2017-Aug-25 09:30N 48°38' W 002°02'0 0.7
2017-Aug-25 08:58N 48°38' W 002°02'3 6.5
2017-Aug-25 08:30N 48°41' W 002°05'3 3.6
2017-Aug-25 07:48N 48°39' W 002°02'1 3.8
2017-Aug-25 07:30N 48°38' W 002°02'1 0.7
2017-Aug-25 06:30N 48°39' W 002°01'  

Dump ship's entire track history